createdAt,value
2018-09-24T00:00:01.660Z,1.47
2018-09-24T00:02:28.844Z,1.70
2018-09-24T00:04:56.069Z,1.60
2018-09-24T00:07:23.320Z,1.63
2018-09-24T00:09:50.589Z,1.73
2018-09-24T00:12:17.846Z,1.60
2018-09-24T00:14:45.100Z,1.80
2018-09-24T00:17:12.360Z,1.57
2018-09-24T00:19:39.605Z,1.53
2018-09-24T00:22:06.904Z,2.00
2018-09-24T00:24:34.136Z,1.70
2018-09-24T00:27:01.409Z,1.40
2018-09-24T00:29:28.661Z,1.27
2018-09-24T00:31:56.000Z,1.33
2018-09-24T00:34:23.232Z,1.30
2018-09-24T00:36:50.520Z,2.00
2018-09-24T00:39:17.760Z,2.00
2018-09-24T00:41:44.996Z,1.67
2018-09-24T00:44:12.244Z,2.20
2018-09-24T00:46:39.512Z,1.97
2018-09-24T00:49:06.776Z,2.17
2018-09-24T00:51:34.017Z,2.57
2018-09-24T00:54:01.306Z,2.47
2018-09-24T00:56:28.541Z,2.30
2018-09-24T00:58:55.809Z,2.47
2018-09-24T01:01:23.085Z,2.57
2018-09-24T01:03:50.393Z,2.40
2018-09-24T01:06:17.668Z,2.60
2018-09-24T01:08:45.009Z,2.50
2018-09-24T01:11:12.274Z,2.57
2018-09-24T01:13:39.588Z,2.70
2018-09-24T01:16:06.862Z,2.37
2018-09-24T01:18:34.146Z,2.67
2018-09-24T01:21:01.432Z,2.77
2018-09-24T01:23:28.701Z,2.43
2018-09-24T01:25:56.085Z,2.90
2018-09-24T01:28:23.421Z,2.60
2018-09-24T01:30:50.701Z,2.63
2018-09-24T01:33:17.995Z,2.27
2018-09-24T01:35:45.289Z,2.30
2018-09-24T01:38:12.558Z,2.30
2018-09-24T01:40:39.845Z,2.77
2018-09-24T01:43:07.108Z,2.50
2018-09-24T01:45:34.417Z,2.40
2018-09-24T01:48:01.686Z,2.40
2018-09-24T01:50:28.964Z,2.80
2018-09-24T01:53:00.852Z,2.87
2018-09-24T01:55:28.132Z,2.27
2018-09-24T01:57:55.402Z,2.20
2018-09-24T02:00:22.689Z,2.70
2018-09-24T02:02:49.980Z,2.40
2018-09-24T02:05:17.249Z,2.70
2018-09-24T02:07:44.516Z,2.87
2018-09-24T02:10:11.784Z,4.33
2018-09-24T02:12:39.022Z,2.47
2018-09-24T02:15:06.320Z,2.70
2018-09-24T02:17:33.583Z,2.87
2018-09-24T02:20:00.824Z,3.70
2018-09-24T02:22:29.161Z,3.00
2018-09-24T02:24:57.400Z,3.30
2018-09-24T02:27:24.657Z,2.60
2018-09-24T02:29:51.962Z,2.50
2018-09-24T02:32:19.266Z,2.80
2018-09-24T02:34:47.578Z,2.90
2018-09-24T02:37:15.968Z,2.20
2018-09-24T02:39:43.216Z,3.13
2018-09-24T02:42:10.484Z,3.00
2018-09-24T02:44:37.757Z,3.00
2018-09-24T02:47:05.037Z,3.30
2018-09-24T02:49:32.302Z,3.00
2018-09-24T02:52:02.065Z,3.20
2018-09-24T02:54:29.590Z,2.83
2018-09-24T02:56:56.835Z,3.20
2018-09-24T02:59:24.089Z,3.20
2018-09-24T03:01:51.377Z,3.17
2018-09-24T03:04:18.657Z,2.93
2018-09-24T03:06:45.961Z,2.77
2018-09-24T03:09:15.542Z,3.90
2018-09-24T03:11:43.172Z,3.10
2018-09-24T03:14:10.466Z,3.83
2018-09-24T03:16:37.912Z,2.93
2018-09-24T03:19:05.273Z,3.73
2018-09-24T03:21:32.559Z,3.43
2018-09-24T03:23:59.910Z,3.90
2018-09-24T03:26:27.206Z,3.20
2018-09-24T03:28:54.973Z,3.83
2018-09-24T03:31:22.254Z,3.70
2018-09-24T03:33:49.584Z,3.40
2018-09-24T03:36:16.881Z,3.13
2018-09-24T03:38:44.201Z,4.00
2018-09-24T03:41:11.486Z,4.20
2018-09-24T03:43:38.821Z,4.30
2018-09-24T03:46:06.129Z,4.10
2018-09-24T03:48:33.430Z,4.60
2018-09-24T03:51:00.713Z,4.63
2018-09-24T03:53:28.008Z,4.70
2018-09-24T03:55:55.292Z,5.10
2018-09-24T03:58:22.618Z,4.20
2018-09-24T04:00:50.474Z,4.87
2018-09-24T04:03:17.917Z,5.23
2018-09-24T04:05:50.964Z,4.93
2018-09-24T04:08:23.892Z,4.40
2018-09-24T04:10:56.746Z,4.63
2018-09-24T04:13:29.554Z,4.73
2018-09-24T04:16:02.426Z,6.70
2018-09-24T04:18:35.345Z,5.77
2018-09-24T04:21:08.242Z,5.77
2018-09-24T04:23:41.242Z,4.90
2018-09-24T04:26:14.229Z,5.00
2018-09-24T04:28:47.001Z,5.47
2018-09-24T04:31:19.876Z,5.60
2018-09-24T04:33:52.721Z,5.07
2018-09-24T04:36:25.590Z,5.17
2018-09-24T04:38:58.533Z,4.97
2018-09-24T04:41:31.522Z,5.50
2018-09-24T04:44:04.405Z,6.33
2018-09-24T04:46:37.509Z,5.90
2018-09-24T04:49:10.743Z,6.40
2018-09-24T04:51:43.768Z,6.20
2018-09-24T04:54:16.673Z,7.17
2018-09-24T04:56:49.579Z,5.87
2018-09-24T04:59:22.420Z,6.83
2018-09-24T05:01:55.303Z,7.37
2018-09-24T05:04:28.237Z,7.03
2018-09-24T05:07:01.157Z,7.40
2018-09-24T05:09:34.018Z,6.30
2018-09-24T05:12:06.944Z,6.63
2018-09-24T05:14:39.928Z,6.17
2018-09-24T05:17:12.753Z,6.20
2018-09-24T05:19:45.656Z,6.20
2018-09-24T05:22:18.681Z,6.07
2018-09-24T05:24:51.561Z,5.97
2018-09-24T05:27:24.540Z,6.30
2018-09-24T05:29:57.493Z,6.83
2018-09-24T05:32:30.548Z,5.80
2018-09-24T05:35:03.333Z,6.67
2018-09-24T05:37:36.310Z,6.27
2018-09-24T05:40:09.241Z,6.97
2018-09-24T05:42:42.268Z,6.40
2018-09-24T05:45:15.101Z,7.80
2018-09-24T05:47:47.933Z,6.10
2018-09-24T05:50:27.810Z,6.67
2018-09-24T05:53:00.738Z,6.70
2018-09-24T05:55:33.652Z,6.30
2018-09-24T05:58:06.594Z,6.63
2018-09-24T06:00:39.449Z,6.90
2018-09-24T06:03:12.372Z,7.33
2018-09-24T06:05:45.233Z,6.83
2018-09-24T06:08:18.049Z,7.13
2018-09-24T06:10:50.961Z,8.53
2018-09-24T06:13:23.865Z,7.90
2018-09-24T06:15:56.776Z,7.00
2018-09-24T06:18:29.728Z,7.63
2018-09-24T06:21:02.677Z,8.20
2018-09-24T06:23:35.581Z,7.40
2018-09-24T06:26:08.456Z,8.93
2018-09-24T06:28:41.321Z,8.00
2018-09-24T06:31:14.505Z,7.90
2018-09-24T06:33:47.374Z,7.70
2018-09-24T06:36:20.308Z,7.90
2018-09-24T06:38:53.269Z,8.60
2018-09-24T06:41:26.160Z,8.30
2018-09-24T06:43:59.004Z,8.43
2018-09-24T06:46:31.893Z,8.43
2018-09-24T06:49:04.888Z,7.90
2018-09-24T06:51:37.792Z,7.33
2018-09-24T06:54:10.879Z,8.60
2018-09-24T06:56:43.732Z,7.53
2018-09-24T06:59:16.784Z,8.10
2018-09-24T07:01:49.689Z,7.90
2018-09-24T07:04:22.564Z,8.03
2018-09-24T07:06:55.405Z,7.73
2018-09-24T07:09:28.261Z,7.90
2018-09-24T07:12:01.129Z,8.50
2018-09-24T07:14:34.132Z,8.23
2018-09-24T07:17:07.061Z,8.40
2018-09-24T07:19:40.056Z,7.83
2018-09-24T07:22:12.997Z,6.80
2018-09-24T07:24:45.904Z,8.07
2018-09-24T07:27:18.830Z,8.93
2018-09-24T07:29:51.860Z,7.53
2018-09-24T07:32:24.810Z,7.80
2018-09-24T07:34:57.841Z,9.10
2018-09-24T07:37:30.780Z,8.40
2018-09-24T07:40:03.648Z,7.63
2018-09-24T07:42:36.481Z,7.13
2018-09-24T07:45:09.600Z,7.53
2018-09-24T07:47:42.561Z,7.30
2018-09-24T07:50:15.439Z,6.53
2018-09-24T07:52:48.398Z,6.67
2018-09-24T07:55:21.445Z,6.80
2018-09-24T07:57:54.272Z,6.63
2018-09-24T08:00:27.158Z,5.97
2018-09-24T08:03:00.118Z,6.47
2018-09-24T08:05:33.117Z,6.07
2018-09-24T08:08:05.994Z,5.90
2018-09-24T08:10:38.975Z,5.40
2018-09-24T08:13:11.936Z,7.70
2018-09-24T08:15:44.830Z,5.27
2018-09-24T08:18:17.829Z,5.27
2018-09-24T08:20:50.733Z,6.43
2018-09-24T08:23:23.742Z,6.10
2018-09-24T08:25:56.621Z,5.90
2018-09-24T08:28:29.529Z,5.80
2018-09-24T08:31:02.472Z,6.33
2018-09-24T08:33:35.461Z,5.70
2018-09-24T08:36:08.369Z,5.40
2018-09-24T08:38:41.213Z,5.23
2018-09-24T08:41:14.119Z,5.60
2018-09-24T08:43:46.996Z,4.83
2018-09-24T08:46:19.824Z,8.07
2018-09-24T08:48:52.658Z,5.50
2018-09-24T08:51:25.806Z,12.30
2018-09-24T08:53:58.925Z,6.10
2018-09-24T08:56:31.789Z,4.47
2018-09-24T08:59:04.697Z,4.60
2018-09-24T09:01:37.833Z,5.20
2018-09-24T09:04:10.886Z,4.37
2018-09-24T09:06:43.805Z,5.13
2018-09-24T09:09:16.722Z,4.43
2018-09-24T09:11:49.540Z,4.77
2018-09-24T09:14:22.472Z,4.97
2018-09-24T09:16:55.353Z,4.83
2018-09-24T09:19:28.292Z,4.57
2018-09-24T09:22:01.205Z,4.27
2018-09-24T09:24:34.157Z,4.70
2018-09-24T09:27:07.145Z,4.20
2018-09-24T09:29:40.129Z,3.80
2018-09-24T09:32:13.119Z,3.80
2018-09-24T09:34:46.083Z,4.40
2018-09-24T09:37:18.933Z,4.13
2018-09-24T09:39:51.853Z,4.23
2018-09-24T09:42:24.833Z,3.50
2018-09-24T09:44:57.692Z,3.57
2018-09-24T09:47:30.551Z,3.50
2018-09-24T09:50:03.412Z,3.40
2018-09-24T09:52:36.261Z,3.40
2018-09-24T09:55:09.160Z,3.27
2018-09-24T09:57:42.086Z,2.53
2018-09-24T10:00:14.985Z,3.13
2018-09-24T10:02:48.233Z,3.23
2018-09-24T10:05:21.109Z,3.37
2018-09-24T10:07:54.010Z,3.53
2018-09-24T10:10:26.921Z,3.40
2018-09-24T10:12:59.752Z,3.47
2018-09-24T10:15:32.656Z,3.13
2018-09-24T10:18:05.658Z,3.00
2018-09-24T10:20:38.537Z,2.63
2018-09-24T10:23:11.389Z,5.30
2018-09-24T10:25:44.335Z,3.77
2018-09-24T10:28:17.240Z,2.40
2018-09-24T10:30:50.098Z,2.63
2018-09-24T10:33:23.048Z,2.30
2018-09-24T10:35:56.016Z,3.57
2018-09-24T10:38:28.929Z,2.70
2018-09-24T10:41:01.890Z,2.80
2018-09-24T10:43:34.817Z,2.50
2018-09-24T10:46:07.750Z,2.77
2018-09-24T10:48:40.689Z,2.60
2018-09-24T10:51:13.629Z,2.50
2018-09-24T10:53:46.540Z,2.50
2018-09-24T10:56:19.382Z,2.77
2018-09-24T10:58:52.265Z,2.17
2018-09-24T11:01:25.455Z,2.23
2018-09-24T11:03:58.394Z,2.10
2018-09-24T11:06:31.277Z,2.63
2018-09-24T11:09:04.201Z,2.37
2018-09-24T11:11:37.022Z,2.37
2018-09-24T11:14:09.945Z,1.87
2018-09-24T11:16:42.980Z,2.47
2018-09-24T11:19:15.865Z,2.00
2018-09-24T11:21:48.829Z,4.10
2018-09-24T11:24:21.818Z,2.27
2018-09-24T11:26:54.710Z,2.60
2018-09-24T11:29:27.799Z,2.97
2018-09-24T11:32:00.768Z,2.40
2018-09-24T11:34:33.690Z,2.20
2018-09-24T11:37:06.580Z,2.70
2018-09-24T11:39:39.498Z,1.93
2018-09-24T11:42:12.432Z,2.27
2018-09-24T11:44:45.267Z,2.67
2018-09-24T11:47:18.109Z,2.37
2018-09-24T11:49:51.049Z,2.33
2018-09-24T11:52:23.876Z,2.70
2018-09-24T11:54:56.866Z,2.50
2018-09-24T11:57:29.811Z,3.27
2018-09-24T12:00:02.825Z,3.07
2018-09-24T12:02:35.717Z,2.40
2018-09-24T12:05:08.641Z,2.03
2018-09-24T12:07:41.581Z,2.37
2018-09-24T12:10:14.548Z,2.27
2018-09-24T12:12:47.385Z,2.40
2018-09-24T12:15:20.441Z,2.23
2018-09-24T12:17:53.321Z,2.60
2018-09-24T12:20:26.233Z,2.57
2018-09-24T12:22:59.102Z,2.37
2018-09-24T12:25:32.061Z,2.43
2018-09-24T12:28:05.012Z,2.40
2018-09-24T12:30:37.876Z,2.40
2018-09-24T12:33:10.845Z,2.53
2018-09-24T12:35:43.733Z,2.40
2018-09-24T12:38:16.605Z,2.53
2018-09-24T12:40:49.517Z,2.40
2018-09-24T12:43:22.385Z,2.20
2018-09-24T12:45:55.388Z,2.83
2018-09-24T12:48:28.321Z,3.47
2018-09-24T12:51:01.249Z,2.43
2018-09-24T12:53:34.108Z,2.67
2018-09-24T12:56:06.949Z,2.43
2018-09-24T12:58:39.844Z,2.47
2018-09-24T13:01:12.836Z,2.93
2018-09-24T13:03:45.709Z,2.40
2018-09-24T13:06:18.602Z,3.00
2018-09-24T13:08:51.550Z,2.60
2018-09-24T13:11:24.380Z,2.43
2018-09-24T13:13:57.355Z,2.50
2018-09-24T13:16:30.316Z,2.53
2018-09-24T13:19:03.175Z,2.40
2018-09-24T13:21:35.982Z,2.70
2018-09-24T13:24:08.845Z,2.20
2018-09-24T13:26:41.768Z,2.50
2018-09-24T13:29:14.613Z,2.07
2018-09-24T13:31:47.654Z,2.00
2018-09-24T13:34:20.556Z,2.33
2018-09-24T13:36:53.413Z,2.00
2018-09-24T13:39:26.293Z,2.00
2018-09-24T13:41:59.381Z,2.00
2018-09-24T13:44:32.370Z,2.33
2018-09-24T13:47:05.409Z,2.33
2018-09-24T13:49:38.289Z,2.53
2018-09-24T13:52:11.347Z,2.43
2018-09-24T13:54:44.303Z,2.20
2018-09-24T13:57:17.185Z,2.30
2018-09-24T13:59:50.121Z,2.33
2018-09-24T14:02:23.088Z,2.47
2018-09-24T14:04:55.948Z,2.43
2018-09-24T14:07:28.829Z,2.20
2018-09-24T14:10:01.725Z,2.07
2018-09-24T14:12:34.626Z,2.10
2018-09-24T14:15:07.457Z,3.83
2018-09-24T14:17:40.441Z,2.40
2018-09-24T14:20:13.261Z,3.33
2018-09-24T14:22:46.157Z,2.20
2018-09-24T14:25:19.070Z,2.53
2018-09-24T14:27:52.056Z,1.80
2018-09-24T14:30:25.005Z,2.20
2018-09-24T14:32:57.957Z,2.00
2018-09-24T14:35:30.812Z,2.17
2018-09-24T14:38:03.864Z,1.63
2018-09-24T14:40:36.727Z,2.00
2018-09-24T14:43:09.700Z,1.93
2018-09-24T14:45:42.608Z,2.07
2018-09-24T14:48:15.430Z,2.33
2018-09-24T14:50:48.313Z,1.57
2018-09-24T14:53:21.236Z,2.00
2018-09-24T14:55:54.237Z,1.70
2018-09-24T14:58:27.123Z,1.80
2018-09-24T15:01:00.101Z,1.67
2018-09-24T15:03:33.213Z,1.50
2018-09-24T15:06:06.012Z,1.60
2018-09-24T15:08:38.809Z,2.00
2018-09-24T15:11:11.993Z,2.23
2018-09-24T15:13:45.028Z,1.90
2018-09-24T15:16:17.898Z,2.10
2018-09-24T15:18:50.905Z,2.00
2018-09-24T15:21:23.717Z,3.73
2018-09-24T15:23:56.601Z,1.60
2018-09-24T15:26:29.452Z,1.70
2018-09-24T15:29:02.368Z,1.83
2018-09-24T15:31:35.204Z,1.47
2018-09-24T15:34:08.068Z,2.43
2018-09-24T15:36:40.893Z,2.00
2018-09-24T15:39:13.777Z,1.77
2018-09-24T15:41:46.596Z,2.07
2018-09-24T15:44:19.617Z,1.80
2018-09-24T15:46:52.962Z,1.63
2018-09-24T15:49:25.949Z,2.10
2018-09-24T15:51:58.893Z,1.40
2018-09-24T15:54:31.857Z,1.70
2018-09-24T15:57:04.769Z,1.77
2018-09-24T15:59:37.873Z,1.53
2018-09-24T16:02:10.761Z,1.40
2018-09-24T16:04:43.660Z,1.63
2018-09-24T16:07:16.790Z,1.90
2018-09-24T16:09:49.826Z,1.33
2018-09-24T16:12:22.805Z,1.60
2018-09-24T16:14:55.681Z,2.10
2018-09-24T16:17:28.531Z,1.70
2018-09-24T16:20:01.544Z,1.83
2018-09-24T16:22:34.642Z,1.90
2018-09-24T16:25:07.533Z,1.70
2018-09-24T16:27:40.377Z,1.40
2018-09-24T16:30:13.308Z,2.93
2018-09-24T16:32:46.205Z,1.37
2018-09-24T16:35:19.123Z,1.57
2018-09-24T16:37:52.069Z,1.40
2018-09-24T16:40:25.018Z,1.90
2018-09-24T16:42:57.980Z,1.70
2018-09-24T16:45:30.926Z,2.60
2018-09-24T16:48:03.821Z,1.87
2018-09-24T16:50:36.705Z,1.40
2018-09-24T16:53:09.566Z,1.90
2018-09-24T16:55:42.504Z,1.50
2018-09-24T16:58:15.349Z,1.70
2018-09-24T17:00:48.272Z,1.47
2018-09-24T17:03:21.225Z,1.60
2018-09-24T17:05:54.157Z,2.00
2018-09-24T17:08:27.039Z,1.60
2018-09-24T17:10:59.898Z,1.90
2018-09-24T17:13:32.805Z,1.37
2018-09-24T17:16:05.837Z,1.67
2018-09-24T17:18:38.681Z,1.40
2018-09-24T17:21:11.768Z,1.80
2018-09-24T17:23:44.826Z,4.03
2018-09-24T17:26:17.766Z,2.00
2018-09-24T17:28:50.674Z,2.10
2018-09-24T17:31:23.581Z,1.30
2018-09-24T17:33:56.606Z,1.90
2018-09-24T17:36:29.543Z,2.40
2018-09-24T17:39:02.445Z,2.47
2018-09-24T17:41:35.353Z,2.50
2018-09-24T17:44:08.337Z,2.53
2018-09-24T17:46:41.267Z,2.30
2018-09-24T17:49:14.116Z,2.43
2018-09-24T17:51:47.040Z,2.17
2018-09-24T17:54:20.026Z,2.00
2018-09-24T17:56:52.879Z,2.10
2018-09-24T17:59:25.773Z,1.70
2018-09-24T18:01:58.745Z,2.30
2018-09-24T18:04:31.581Z,1.83
2018-09-24T18:07:04.522Z,2.70
2018-09-24T18:09:37.385Z,2.17
2018-09-24T18:12:10.524Z,2.90
2018-09-24T18:14:43.531Z,2.20
2018-09-24T18:17:16.634Z,2.30
2018-09-24T18:19:49.533Z,2.03
2018-09-24T18:22:22.486Z,2.33
2018-09-24T18:24:55.571Z,2.53
2018-09-24T18:27:28.488Z,2.23
2018-09-24T18:30:01.368Z,2.07
2018-09-24T18:32:34.377Z,2.00
2018-09-24T18:35:07.304Z,2.40
2018-09-24T18:37:40.241Z,2.43
2018-09-24T18:40:13.138Z,3.87
2018-09-24T18:42:46.017Z,2.40
2018-09-24T18:45:19.173Z,2.50
2018-09-24T18:47:52.062Z,2.80
2018-09-24T18:50:24.977Z,2.77
2018-09-24T18:52:57.853Z,2.87
2018-09-24T18:55:30.725Z,2.20
2018-09-24T18:58:03.645Z,2.30
2018-09-24T19:00:36.669Z,2.20
2018-09-24T19:03:09.851Z,2.83
2018-09-24T19:05:42.682Z,1.83
2018-09-24T19:08:15.616Z,2.40
2018-09-24T19:10:48.659Z,3.00
2018-09-24T19:13:21.510Z,2.30
2018-09-24T19:15:54.373Z,2.30
2018-09-24T19:18:27.372Z,2.50
2018-09-24T19:21:00.201Z,2.60
2018-09-24T19:23:33.101Z,2.77
2018-09-24T19:26:06.060Z,2.37
2018-09-24T19:28:39.034Z,1.90
2018-09-24T19:31:11.918Z,2.63
2018-09-24T19:33:45.000Z,2.80
2018-09-24T19:36:17.892Z,2.30
2018-09-24T19:38:50.889Z,2.70
2018-09-24T19:41:23.865Z,2.13
2018-09-24T19:43:56.719Z,2.93
2018-09-24T19:46:29.593Z,3.47
2018-09-24T19:49:02.623Z,2.33
2018-09-24T19:51:35.581Z,1.87
2018-09-24T19:54:08.529Z,2.37
2018-09-24T19:56:41.733Z,2.20
2018-09-24T19:59:14.652Z,2.20
2018-09-24T20:01:47.702Z,2.30
2018-09-24T20:04:20.646Z,2.10
2018-09-24T20:06:53.547Z,2.17
2018-09-24T20:09:26.461Z,2.17
2018-09-24T20:11:59.386Z,2.60
2018-09-24T20:14:32.373Z,2.43
2018-09-24T20:17:05.435Z,3.20
2018-09-24T20:19:38.248Z,2.73
2018-09-24T20:22:12.448Z,1.90
2018-09-24T20:24:47.182Z,2.77
2018-09-24T20:27:20.187Z,2.60
2018-09-24T20:29:53.525Z,2.20
2018-09-24T20:32:26.446Z,2.47
2018-09-24T20:34:59.421Z,2.30
2018-09-24T20:37:32.343Z,2.47
2018-09-24T20:40:05.244Z,2.40
2018-09-24T20:42:38.213Z,2.83
2018-09-24T20:45:11.711Z,2.77
2018-09-24T20:47:44.664Z,2.83
2018-09-24T20:50:17.697Z,2.87
2018-09-24T20:52:50.713Z,2.57
2018-09-24T20:55:23.628Z,2.67
2018-09-24T20:57:56.613Z,2.50
2018-09-24T21:00:29.765Z,2.43
2018-09-24T21:03:02.693Z,2.47
2018-09-24T21:05:35.585Z,2.93
2018-09-24T21:08:08.519Z,2.30
2018-09-24T21:10:41.641Z,2.50
2018-09-24T21:13:14.525Z,2.33
2018-09-24T21:15:47.559Z,2.70
2018-09-24T21:18:20.755Z,2.50
2018-09-24T21:20:53.612Z,2.80
2018-09-24T21:23:26.516Z,3.00
2018-09-24T21:25:59.456Z,2.10
2018-09-24T21:28:32.420Z,2.03
2018-09-24T21:31:05.341Z,2.37
2018-09-24T21:33:38.313Z,2.10
2018-09-24T21:36:11.913Z,2.10
2018-09-24T21:38:44.818Z,2.47
2018-09-24T21:41:17.786Z,2.73
2018-09-24T21:43:50.759Z,2.50
2018-09-24T21:46:24.255Z,2.43
2018-09-24T21:48:56.933Z,2.57
2018-09-24T21:51:29.841Z,2.40
2018-09-24T21:54:02.784Z,2.73
2018-09-24T21:56:35.697Z,2.13
2018-09-24T21:59:08.601Z,2.60
2018-09-24T22:01:41.547Z,2.47
2018-09-24T22:04:14.432Z,2.00
2018-09-24T22:06:47.437Z,2.17
2018-09-24T22:09:20.363Z,2.33
2018-09-24T22:11:53.148Z,2.70
2018-09-24T22:14:26.085Z,2.03
2018-09-24T22:16:59.035Z,2.27
2018-09-24T22:19:31.904Z,2.30
2018-09-24T22:22:04.689Z,2.37
2018-09-24T22:24:37.584Z,2.67
2018-09-24T22:27:10.582Z,2.40
2018-09-24T22:29:43.452Z,2.10
2018-09-24T22:32:16.360Z,2.20
2018-09-24T22:34:49.310Z,2.13
2018-09-24T22:37:22.194Z,2.60
2018-09-24T22:39:55.136Z,2.53
2018-09-24T22:42:28.032Z,2.80
2018-09-24T22:45:00.949Z,2.10
2018-09-24T22:47:33.986Z,2.73
2018-09-24T22:50:06.985Z,2.50
2018-09-24T22:52:39.965Z,2.73
2018-09-24T22:55:12.913Z,2.40
2018-09-24T22:57:45.913Z,2.20
2018-09-24T23:00:18.791Z,3.00
2018-09-24T23:02:51.696Z,2.50
2018-09-24T23:05:24.600Z,2.30
2018-09-24T23:07:57.678Z,1.93
2018-09-24T23:10:30.538Z,2.40
2018-09-24T23:13:03.653Z,2.90
2018-09-24T23:15:36.741Z,2.60
2018-09-24T23:18:09.757Z,2.23
2018-09-24T23:20:42.725Z,2.93
2018-09-24T23:23:15.665Z,2.43
2018-09-24T23:25:48.622Z,2.13
2018-09-24T23:28:21.521Z,3.00
2018-09-24T23:30:54.436Z,4.70
2018-09-24T23:33:27.437Z,5.00
2018-09-24T23:36:00.300Z,3.57
2018-09-24T23:38:33.274Z,3.77
2018-09-24T23:41:06.165Z,3.23
2018-09-24T23:43:39.126Z,3.63
2018-09-24T23:46:12.047Z,3.60
2018-09-24T23:48:44.979Z,2.80
2018-09-24T23:51:17.873Z,3.17
2018-09-24T23:53:50.821Z,3.07
2018-09-24T23:56:23.713Z,2.47
2018-09-24T23:58:56.565Z,2.30
